createdAt,value
2023-02-12T00:01:09.511Z,103227.59
2023-02-12T00:03:37.866Z,103228.91
2023-02-12T00:06:06.115Z,103235.25
2023-02-12T00:08:33.765Z,103227.16
2023-02-12T00:11:11.306Z,103233.47
2023-02-12T00:13:38.967Z,103227.03
2023-02-12T00:16:07.898Z,103220.81
2023-02-12T00:18:35.756Z,103225.47
2023-02-12T00:21:03.365Z,103220.00
2023-02-12T00:23:30.698Z,103216.16
2023-02-12T00:25:58.020Z,103210.91
2023-02-12T00:28:25.797Z,103208.16
2023-02-12T00:30:53.255Z,103212.09
2023-02-12T00:33:20.884Z,103212.81
2023-02-12T00:35:56.540Z,103209.09
2023-02-12T00:38:24.138Z,103207.53
2023-02-12T00:40:51.411Z,103208.50
2023-02-12T00:43:18.725Z,103215.22
2023-02-12T00:45:46.782Z,103208.25
2023-02-12T00:48:14.903Z,103212.06
2023-02-12T00:50:45.503Z,103213.03
2023-02-12T00:53:12.723Z,103215.91
2023-02-12T00:55:40.377Z,103214.34
2023-02-12T00:58:07.755Z,103208.41
2023-02-12T01:00:35.223Z,103212.19
2023-02-12T01:03:04.288Z,103216.03
2023-02-12T01:05:33.273Z,103209.22
2023-02-12T01:08:00.877Z,103216.50
2023-02-12T01:10:28.500Z,103211.75
2023-02-12T01:12:55.965Z,103209.81
2023-02-12T01:15:23.964Z,103209.47
2023-02-12T01:17:53.252Z,103205.88
2023-02-12T01:20:23.175Z,103213.41
2023-02-12T01:22:51.082Z,103202.66
2023-02-12T01:25:20.530Z,103202.75
2023-02-12T01:27:48.827Z,103198.56
2023-02-12T01:30:16.527Z,103198.94
2023-02-12T01:32:44.177Z,103205.50
2023-02-12T01:35:11.891Z,103204.34
2023-02-12T01:37:41.442Z,103200.13
2023-02-12T01:40:11.847Z,103208.50
2023-02-12T01:42:40.383Z,103209.44
2023-02-12T01:45:13.595Z,103203.34
2023-02-12T01:47:42.652Z,103200.25
2023-02-12T01:50:15.843Z,103209.97
2023-02-12T01:52:47.771Z,103197.75
2023-02-12T01:55:15.788Z,103208.75
2023-02-12T01:57:45.423Z,103208.75
2023-02-12T02:00:19.708Z,103209.22
2023-02-12T02:02:51.762Z,103206.25
2023-02-12T02:05:43.776Z,103201.34
2023-02-12T02:08:11.938Z,103199.34
2023-02-12T02:10:39.311Z,103195.13
2023-02-12T02:13:25.661Z,103188.91
2023-02-12T02:15:57.910Z,103183.53
2023-02-12T02:18:44.936Z,103192.91
2023-02-12T02:21:31.151Z,103195.69
2023-02-12T02:24:32.824Z,103195.47
2023-02-12T02:27:16.003Z,103193.78
2023-02-12T02:29:52.361Z,103187.94
2023-02-12T02:32:30.140Z,103194.66
2023-02-12T02:35:11.371Z,103186.66
2023-02-12T02:38:09.044Z,103182.13
2023-02-12T02:40:44.870Z,103191.44
2023-02-12T02:43:23.708Z,103188.19
2023-02-12T02:46:06.254Z,103182.06
2023-02-12T02:48:40.826Z,103181.47
2023-02-12T02:51:12.442Z,103179.34
2023-02-12T02:53:47.487Z,103184.22
2023-02-12T02:56:18.223Z,103171.09
2023-02-12T02:58:54.133Z,103178.00
2023-02-12T03:01:29.758Z,103180.41
2023-02-12T03:04:04.175Z,103175.59
2023-02-12T03:06:40.670Z,103178.13
2023-02-12T03:09:43.020Z,103165.25
2023-02-12T03:12:14.593Z,103163.34
2023-02-12T03:14:47.810Z,103164.91
2023-02-12T03:17:25.031Z,103169.25
2023-02-12T03:19:59.042Z,103153.91
2023-02-12T03:22:33.409Z,103145.72
2023-02-12T03:25:09.659Z,103151.34
2023-02-12T03:27:39.860Z,103150.91
2023-02-12T03:30:08.165Z,103152.34
2023-02-12T03:32:49.847Z,103143.84
2023-02-12T03:35:23.244Z,103141.28
2023-02-12T03:38:12.197Z,103144.69
2023-02-12T03:40:43.267Z,103131.47
2023-02-12T03:43:21.312Z,103136.53
2023-02-12T03:46:01.817Z,103138.72
2023-02-12T03:49:01.136Z,103135.34
2023-02-12T03:51:40.911Z,103144.28
2023-02-12T03:54:09.770Z,103141.13
2023-02-12T03:56:43.624Z,103137.94
2023-02-12T03:59:12.149Z,103130.16
2023-02-12T04:01:39.591Z,103127.53
2023-02-12T04:04:08.370Z,103140.25
2023-02-12T04:06:36.301Z,103134.84
2023-02-12T04:09:06.714Z,103140.25
2023-02-12T04:11:52.750Z,103134.16
2023-02-12T04:14:57.429Z,103134.28
2023-02-12T04:17:38.809Z,103144.63
2023-02-12T04:20:12.202Z,103134.47
2023-02-12T04:23:00.611Z,103145.13
2023-02-12T04:25:58.453Z,103141.44
2023-02-12T04:28:30.312Z,103142.13
2023-02-12T04:31:03.634Z,103141.69
2023-02-12T04:33:58.545Z,103135.09
2023-02-12T04:36:30.197Z,103151.38
2023-02-12T04:39:08.113Z,103147.47
2023-02-12T04:41:35.565Z,103153.81
2023-02-12T04:44:23.070Z,103155.75
2023-02-12T04:46:51.163Z,103156.16
2023-02-12T04:49:20.772Z,103157.97
2023-02-12T04:51:49.170Z,103165.16
2023-02-12T04:54:17.964Z,103149.94
2023-02-12T04:56:46.027Z,103155.56
2023-02-12T04:59:13.438Z,103165.41
2023-02-12T05:01:41.690Z,103158.66
2023-02-12T05:04:11.152Z,103155.56
2023-02-12T05:06:39.257Z,103150.53
2023-02-12T05:09:07.416Z,103157.97
2023-02-12T05:11:34.885Z,103152.81
2023-02-12T05:14:02.130Z,103154.75
2023-02-12T05:16:29.479Z,103157.00
2023-02-12T05:18:57.035Z,103141.63
2023-02-12T05:21:24.351Z,103146.38
2023-02-12T05:23:51.626Z,103154.97
2023-02-12T05:26:21.402Z,103139.88
2023-02-12T05:28:48.931Z,103150.44
2023-02-12T05:31:21.024Z,103148.28
2023-02-12T05:33:49.127Z,103142.91
2023-02-12T05:36:19.114Z,103151.66
2023-02-12T05:38:46.795Z,103149.59
2023-02-12T05:41:17.155Z,103140.53
2023-02-12T05:43:46.591Z,103140.16
2023-02-12T05:46:16.280Z,103141.56
2023-02-12T05:48:43.619Z,103138.16
2023-02-12T05:51:13.868Z,103132.22
2023-02-12T05:53:41.774Z,103133.94
2023-02-12T05:56:20.527Z,103135.28
2023-02-12T05:58:52.451Z,103143.28
2023-02-12T06:01:22.730Z,103143.75
2023-02-12T06:03:50.118Z,103139.19
2023-02-12T06:06:17.588Z,103137.44
2023-02-12T06:08:48.125Z,103136.31
2023-02-12T06:11:16.556Z,103132.38
2023-02-12T06:13:44.219Z,103131.47
2023-02-12T06:16:20.103Z,103128.84
2023-02-12T06:18:47.633Z,103136.81
2023-02-12T06:21:15.748Z,103138.13
2023-02-12T06:23:43.368Z,103130.41
2023-02-12T06:26:11.305Z,103130.41
2023-02-12T06:28:38.746Z,103139.22
2023-02-12T06:31:06.480Z,103127.28
2023-02-12T06:33:35.637Z,103130.31
2023-02-12T06:36:04.593Z,103137.47
2023-02-12T06:38:35.002Z,103135.28
2023-02-12T06:41:03.085Z,103139.13
2023-02-12T06:43:30.748Z,103130.66
2023-02-12T06:46:01.219Z,103135.56
2023-02-12T06:48:28.929Z,103136.50
2023-02-12T06:50:56.289Z,103132.34
2023-02-12T06:53:23.518Z,103136.97
2023-02-12T06:55:50.854Z,103138.66
2023-02-12T06:58:18.255Z,103137.22
2023-02-12T07:00:45.949Z,103129.63
2023-02-12T07:03:13.413Z,103140.72
2023-02-12T07:05:40.993Z,103146.75
2023-02-12T07:08:08.285Z,103146.41
2023-02-12T07:10:35.655Z,103148.91
2023-02-12T07:13:03.913Z,103154.16
2023-02-12T07:15:31.251Z,103159.66
2023-02-12T07:17:58.519Z,103153.31
2023-02-12T07:20:25.793Z,103158.22
2023-02-12T07:22:53.077Z,103175.53
2023-02-12T07:25:20.326Z,103162.03
2023-02-12T07:27:47.668Z,103161.06
2023-02-12T07:30:15.290Z,103162.75
2023-02-12T07:32:42.625Z,103170.84
2023-02-12T07:35:10.013Z,103171.91
2023-02-12T07:37:37.501Z,103171.91
2023-02-12T07:40:05.324Z,103165.34
2023-02-12T07:42:32.823Z,103175.34
2023-02-12T07:45:06.633Z,103177.41
2023-02-12T07:47:35.789Z,103174.41
2023-02-12T07:50:03.040Z,103174.06
2023-02-12T07:52:30.370Z,103170.31
2023-02-12T07:54:57.562Z,103169.06
2023-02-12T07:57:25.172Z,103162.53
2023-02-12T07:59:54.877Z,103161.13
2023-02-12T08:02:25.613Z,103173.03
2023-02-12T08:04:59.342Z,103166.78
2023-02-12T08:07:26.744Z,103168.19
2023-02-12T08:09:54.024Z,103166.53
2023-02-12T08:12:21.517Z,103167.25
2023-02-12T08:14:48.992Z,103159.34
2023-02-12T08:17:16.277Z,103158.63
2023-02-12T08:19:43.663Z,103162.34
2023-02-12T08:22:10.934Z,103164.56
2023-02-12T08:24:38.401Z,103165.16
2023-02-12T08:27:05.667Z,103165.97
2023-02-12T08:29:33.040Z,103170.69
2023-02-12T08:32:02.829Z,103170.44
2023-02-12T08:34:33.324Z,103175.81
2023-02-12T08:37:01.622Z,103178.59
2023-02-12T08:39:30.046Z,103174.44
2023-02-12T08:41:58.631Z,103182.56
2023-02-12T08:44:25.871Z,103190.81
2023-02-12T08:46:53.584Z,103184.44
2023-02-12T08:49:23.759Z,103182.69
2023-02-12T08:51:53.242Z,103192.94
2023-02-12T08:54:26.132Z,103191.75
2023-02-12T08:56:58.257Z,103198.09
2023-02-12T08:59:25.656Z,103191.31
2023-02-12T09:01:53.315Z,103186.44
2023-02-12T09:04:25.658Z,103186.44
2023-02-12T09:06:53.521Z,103189.00
2023-02-12T09:09:20.851Z,103186.41
2023-02-12T09:11:48.497Z,103187.59
2023-02-12T09:14:17.118Z,103189.56
2023-02-12T09:16:44.975Z,103182.00
2023-02-12T09:19:13.830Z,103177.19
2023-02-12T09:21:41.901Z,103177.84
2023-02-12T09:24:10.098Z,103180.66
2023-02-12T09:26:37.631Z,103186.50
2023-02-12T09:29:05.340Z,103179.63
2023-02-12T09:31:33.379Z,103185.97
2023-02-12T09:34:03.586Z,103177.03
2023-02-12T09:36:31.261Z,103168.28
2023-02-12T09:38:59.548Z,103183.75
2023-02-12T09:41:44.086Z,103171.25
2023-02-12T09:44:39.321Z,103171.16
2023-02-12T09:47:12.737Z,103165.19
2023-02-12T09:49:52.131Z,103168.19
2023-02-12T09:52:23.515Z,103166.88
2023-02-12T09:54:51.031Z,103166.13
2023-02-12T09:57:25.779Z,103167.84
2023-02-12T10:00:00.166Z,103167.56
2023-02-12T10:02:27.650Z,103161.28
2023-02-12T10:05:01.601Z,103156.69
2023-02-12T10:07:58.517Z,103163.03
2023-02-12T10:11:11.002Z,103158.91
2023-02-12T10:14:02.744Z,103161.38
2023-02-12T10:16:30.544Z,103153.22
2023-02-12T10:18:59.345Z,103158.28
2023-02-12T10:21:38.932Z,103153.59
2023-02-12T10:24:38.283Z,103166.22
2023-02-12T10:27:13.126Z,103163.00
2023-02-12T10:29:44.623Z,103157.41
2023-02-12T10:32:33.428Z,103161.84
2023-02-12T10:35:00.671Z,103157.63
2023-02-12T10:37:34.012Z,103154.50
2023-02-12T10:40:28.430Z,103158.38
2023-02-12T10:43:00.143Z,103154.47
2023-02-12T10:45:39.897Z,103154.47
2023-02-12T10:48:11.670Z,103160.47
2023-02-12T10:51:09.924Z,103152.78
2023-02-12T10:53:45.439Z,103155.88
2023-02-12T10:56:12.975Z,103156.38
2023-02-12T10:58:42.650Z,103147.91
2023-02-12T11:01:29.896Z,103147.69
2023-02-12T11:03:58.862Z,103150.66
2023-02-12T11:06:29.012Z,103147.25
2023-02-12T11:08:56.515Z,103152.41
2023-02-12T11:11:27.429Z,103140.63
2023-02-12T11:13:56.932Z,103146.25
2023-02-12T11:16:32.234Z,103142.47
2023-02-12T11:19:06.723Z,103136.28
2023-02-12T11:21:37.020Z,103138.06
2023-02-12T11:24:26.307Z,103141.81
2023-02-12T11:27:12.257Z,103140.53
2023-02-12T11:29:39.987Z,103131.47
2023-02-12T11:32:09.388Z,103133.13
2023-02-12T11:34:36.826Z,103128.22
2023-02-12T11:37:05.196Z,103122.38
2023-02-12T11:39:35.030Z,103125.72
2023-02-12T11:42:05.265Z,103113.38
2023-02-12T11:44:36.382Z,103111.50
2023-02-12T11:47:12.127Z,103109.84
2023-02-12T11:49:44.237Z,103107.69
2023-02-12T11:52:22.394Z,103100.53
2023-02-12T11:54:51.707Z,103104.59
2023-02-12T11:57:43.436Z,103099.88
2023-02-12T12:00:28.438Z,103101.94
2023-02-12T12:03:06.776Z,103095.44
2023-02-12T12:05:40.743Z,103095.94
2023-02-12T12:08:15.988Z,103087.16
2023-02-12T12:11:01.013Z,103088.09
2023-02-12T12:13:34.048Z,103090.00
2023-02-12T12:16:33.559Z,103090.59
2023-02-12T12:19:29.167Z,103081.91
2023-02-12T12:22:34.497Z,103078.75
2023-02-12T12:25:32.184Z,103070.72
2023-02-12T12:28:26.785Z,103066.13
2023-02-12T12:30:59.963Z,103068.53
2023-02-12T12:33:57.118Z,103066.00
2023-02-12T12:36:43.155Z,103063.75
2023-02-12T12:39:32.609Z,103058.88
2023-02-12T12:42:25.745Z,103055.47
2023-02-12T12:45:13.418Z,103044.59
2023-02-12T12:48:04.405Z,103050.19
2023-02-12T12:50:52.738Z,103038.72
2023-02-12T12:53:38.115Z,103036.09
2023-02-12T12:56:30.851Z,103042.81
2023-02-12T12:59:23.579Z,103052.59
2023-02-12T13:02:32.763Z,103050.75
2023-02-12T13:05:03.594Z,103049.72
2023-02-12T13:08:13.236Z,103047.63
2023-02-12T13:10:58.302Z,103045.31
2023-02-12T13:13:34.224Z,103042.84
2023-02-12T13:16:11.495Z,103037.13
2023-02-12T13:18:44.830Z,103036.84
2023-02-12T13:21:30.263Z,103026.75
2023-02-12T13:24:04.104Z,103026.03
2023-02-12T13:26:37.642Z,103024.13
2023-02-12T13:29:19.286Z,103022.13
2023-02-12T13:31:55.068Z,103028.28
2023-02-12T13:34:23.074Z,103019.69
2023-02-12T13:36:50.544Z,103017.25
2023-02-12T13:39:35.275Z,103020.66
2023-02-12T13:42:08.937Z,103012.44
2023-02-12T13:44:51.037Z,103020.28
2023-02-12T13:47:52.145Z,103016.72
2023-02-12T13:50:34.540Z,103022.25
2023-02-12T13:53:13.719Z,103010.22
2023-02-12T13:56:16.412Z,103006.88
2023-02-12T13:58:52.183Z,103008.41
2023-02-12T14:01:41.881Z,103009.25
2023-02-12T14:04:29.487Z,103000.25
2023-02-12T14:07:03.027Z,102993.56
2023-02-12T14:09:37.827Z,103002.16
2023-02-12T14:12:09.447Z,102992.97
2023-02-12T14:14:43.177Z,102990.03
2023-02-12T14:17:28.953Z,102989.59
2023-02-12T14:20:15.082Z,102985.03
2023-02-12T14:22:42.363Z,102983.44
2023-02-12T14:25:24.714Z,102973.31
2023-02-12T14:28:00.664Z,102989.59
2023-02-12T14:30:40.169Z,102977.50
2023-02-12T14:33:07.802Z,102972.50
2023-02-12T14:35:46.345Z,102985.38
2023-02-12T14:38:16.617Z,102973.00
2023-02-12T14:40:51.285Z,102970.81
2023-02-12T14:43:31.264Z,102974.31
2023-02-12T14:46:23.749Z,102976.28
2023-02-12T14:48:54.634Z,102971.50
2023-02-12T14:51:35.590Z,102967.91
2023-02-12T14:54:05.013Z,102966.13
2023-02-12T14:56:40.115Z,102963.91
2023-02-12T14:59:15.357Z,102962.97
2023-02-12T15:01:43.541Z,102956.78
2023-02-12T15:04:16.724Z,102960.00
2023-02-12T15:06:59.744Z,102962.03
2023-02-12T15:09:32.351Z,102962.41
2023-02-12T15:12:26.814Z,102950.88
2023-02-12T15:15:06.141Z,102946.81
2023-02-12T15:17:35.778Z,102943.13
2023-02-12T15:20:06.889Z,102936.59
2023-02-12T15:22:40.312Z,102931.25
2023-02-12T15:25:24.425Z,102928.78
2023-02-12T15:28:00.798Z,102925.34
2023-02-12T15:30:32.267Z,102931.00
2023-02-12T15:33:07.067Z,102927.13
2023-02-12T15:35:36.356Z,102928.66
2023-02-12T15:38:07.515Z,102929.13
2023-02-12T15:40:35.068Z,102921.63
2023-02-12T15:43:04.981Z,102932.09
2023-02-12T15:45:34.547Z,102921.25
2023-02-12T15:48:13.966Z,102931.00
2023-02-12T15:50:50.034Z,102920.31
2023-02-12T15:53:17.507Z,102925.94
2023-02-12T15:55:46.952Z,102923.47
2023-02-12T15:58:38.184Z,102933.78
2023-02-12T16:01:06.693Z,102925.69
2023-02-12T16:03:36.875Z,102930.47
2023-02-12T16:06:11.201Z,102929.56
2023-02-12T16:08:42.112Z,102925.63
2023-02-12T16:11:16.599Z,102921.69
2023-02-12T16:13:49.995Z,102919.63
2023-02-12T16:16:19.735Z,102922.94
2023-02-12T16:18:47.364Z,102924.84
2023-02-12T16:21:20.339Z,102919.66
2023-02-12T16:23:50.298Z,102913.78
2023-02-12T16:26:27.033Z,102919.13
2023-02-12T16:28:56.698Z,102923.00
2023-02-12T16:31:26.478Z,102921.16
2023-02-12T16:33:56.730Z,102920.53
2023-02-12T16:36:26.226Z,102924.94
2023-02-12T16:38:56.611Z,102924.53
2023-02-12T16:41:31.182Z,102921.66
2023-02-12T16:44:01.298Z,102926.00
2023-02-12T16:46:28.968Z,102931.66
2023-02-12T16:48:57.632Z,102934.38
2023-02-12T16:51:30.648Z,102934.72
2023-02-12T16:54:05.030Z,102930.19
2023-02-12T16:56:38.543Z,102926.59
2023-02-12T16:59:06.032Z,102928.22
2023-02-12T17:01:35.641Z,102931.88
2023-02-12T17:04:08.524Z,102930.69
2023-02-12T17:06:35.886Z,102934.94
2023-02-12T17:09:03.216Z,102932.88
2023-02-12T17:11:30.507Z,102933.97
2023-02-12T17:13:57.841Z,102943.34
2023-02-12T17:16:30.868Z,102946.78
2023-02-12T17:19:00.063Z,102942.91
2023-02-12T17:21:38.466Z,102936.06
2023-02-12T17:24:21.833Z,102941.09
2023-02-12T17:26:50.578Z,102942.06
2023-02-12T17:29:18.831Z,102942.06
2023-02-12T17:31:46.561Z,102940.69
2023-02-12T17:34:14.695Z,102946.28
2023-02-12T17:36:42.817Z,102944.88
2023-02-12T17:39:12.700Z,102950.56
2023-02-12T17:41:40.824Z,102950.50
2023-02-12T17:44:08.240Z,102953.13
2023-02-12T17:46:35.655Z,102953.75
2023-02-12T17:49:03.731Z,102958.66
2023-02-12T17:51:31.130Z,102958.53
2023-02-12T17:53:58.562Z,102963.56
2023-02-12T17:56:27.008Z,102955.63
2023-02-12T17:58:54.364Z,102962.81
2023-02-12T18:01:23.395Z,102959.34
2023-02-12T18:03:53.760Z,102958.53
2023-02-12T18:06:24.681Z,102966.09
2023-02-12T18:08:52.349Z,102966.31
2023-02-12T18:11:20.294Z,102966.84
2023-02-12T18:13:47.956Z,102968.84
2023-02-12T18:16:15.636Z,102973.47
2023-02-12T18:18:43.082Z,102969.19
2023-02-12T18:21:12.365Z,102978.13
2023-02-12T18:23:40.069Z,102971.25
2023-02-12T18:26:09.283Z,102969.59
2023-02-12T18:28:37.466Z,102968.91
2023-02-12T18:31:05.213Z,102968.00
2023-02-12T18:33:33.057Z,102964.09
2023-02-12T18:36:21.255Z,102967.16
2023-02-12T18:38:50.475Z,102963.81
2023-02-12T18:41:21.257Z,102962.16
2023-02-12T18:43:48.883Z,102970.63
2023-02-12T18:46:19.114Z,102965.25
2023-02-12T18:48:46.533Z,102953.91
2023-02-12T18:51:15.667Z,102954.72
2023-02-12T18:53:43.135Z,102954.50
2023-02-12T18:56:11.590Z,102963.28
2023-02-12T18:58:39.043Z,102956.22
2023-02-12T19:01:17.887Z,102952.78
2023-02-12T19:03:46.617Z,102944.44
2023-02-12T19:06:13.961Z,102949.47
2023-02-12T19:08:41.472Z,102942.28
2023-02-12T19:11:10.147Z,102942.13
2023-02-12T19:13:38.793Z,102953.22
2023-02-12T19:16:08.408Z,102946.03
2023-02-12T19:18:35.736Z,102948.16
2023-02-12T19:21:11.690Z,102939.13
2023-02-12T19:23:40.482Z,102939.00
2023-02-12T19:26:17.911Z,102936.75
2023-02-12T19:28:45.228Z,102928.56
2023-02-12T19:31:24.315Z,102931.84
2023-02-12T19:33:56.049Z,102926.13
2023-02-12T19:36:24.199Z,102921.72
2023-02-12T19:38:51.578Z,102930.34
2023-02-12T19:41:21.475Z,102924.13
2023-02-12T19:43:52.500Z,102916.09
2023-02-12T19:46:20.472Z,102924.53
2023-02-12T19:48:48.671Z,102925.28
2023-02-12T19:51:18.156Z,102925.63
2023-02-12T19:53:46.855Z,102932.97
2023-02-12T19:56:15.759Z,102931.63
2023-02-12T19:58:43.946Z,102932.88
2023-02-12T20:01:17.164Z,102910.72
2023-02-12T20:03:46.638Z,102918.97
2023-02-12T20:06:18.352Z,102922.22
2023-02-12T20:08:45.644Z,102922.97
2023-02-12T20:11:18.989Z,102913.56
2023-02-12T20:13:46.976Z,102919.09
2023-02-12T20:16:19.748Z,102928.22
2023-02-12T20:18:48.976Z,102915.22
2023-02-12T20:21:22.641Z,102916.81
2023-02-12T20:23:50.487Z,102920.88
2023-02-12T20:26:19.712Z,102919.56
2023-02-12T20:28:49.056Z,102915.88
2023-02-12T20:31:24.915Z,102908.22
2023-02-12T20:34:00.451Z,102912.53
2023-02-12T20:36:32.133Z,102912.41
2023-02-12T20:39:02.328Z,102913.81
2023-02-12T20:41:29.876Z,102925.56
2023-02-12T20:43:59.950Z,102914.97
2023-02-12T20:46:27.337Z,102916.91
2023-02-12T20:48:55.432Z,102916.81
2023-02-12T20:51:25.794Z,102916.88
2023-02-12T20:53:55.820Z,102912.06
2023-02-12T20:56:26.208Z,102921.53
2023-02-12T20:58:55.737Z,102924.63
2023-02-12T21:01:26.324Z,102925.97
2023-02-12T21:03:54.784Z,102932.13
2023-02-12T21:06:23.435Z,102925.56
2023-02-12T21:08:51.383Z,102925.03
2023-02-12T21:11:22.285Z,102919.56
2023-02-12T21:14:02.588Z,102914.41
2023-02-12T21:16:35.885Z,102917.81
2023-02-12T21:19:05.161Z,102920.03
2023-02-12T21:21:35.361Z,102925.03
2023-02-12T21:24:04.630Z,102920.88
2023-02-12T21:26:33.219Z,102921.22
2023-02-12T21:29:01.714Z,102929.31
2023-02-12T21:31:37.373Z,102925.13
2023-02-12T21:34:06.563Z,102928.38
2023-02-12T21:36:37.421Z,102921.19
2023-02-12T21:39:06.929Z,102925.53
2023-02-12T21:41:37.280Z,102931.38
2023-02-12T21:44:07.672Z,102936.19
2023-02-12T21:46:36.208Z,102934.53
2023-02-12T21:49:04.359Z,102931.72
2023-02-12T21:51:33.143Z,102935.50
2023-02-12T21:54:02.765Z,102929.16
2023-02-12T21:56:30.663Z,102921.13
2023-02-12T21:58:59.544Z,102915.03
2023-02-12T22:01:29.561Z,102921.94
2023-02-12T22:03:57.017Z,102921.75
2023-02-12T22:06:24.970Z,102926.78
2023-02-12T22:08:53.403Z,102924.81
2023-02-12T22:11:21.641Z,102926.38
2023-02-12T22:13:49.342Z,102922.22
2023-02-12T22:16:21.853Z,102929.47
2023-02-12T22:18:52.429Z,102924.28
2023-02-12T22:21:21.897Z,102925.06
2023-02-12T22:23:49.664Z,102936.28
2023-02-12T22:26:21.831Z,102937.47
2023-02-12T22:28:53.701Z,102934.19
2023-02-12T22:31:24.221Z,102934.47
2023-02-12T22:33:54.090Z,102938.38
2023-02-12T22:36:22.030Z,102933.38
2023-02-12T22:38:49.342Z,102940.13
2023-02-12T22:41:16.831Z,102930.13
2023-02-12T22:43:44.500Z,102930.13
2023-02-12T22:46:12.966Z,102926.53
2023-02-12T22:48:41.015Z,102926.78
2023-02-12T22:51:22.600Z,102930.03
2023-02-12T22:53:50.193Z,102933.28
2023-02-12T22:56:18.087Z,102923.63
2023-02-12T22:58:46.086Z,102922.34
2023-02-12T23:01:18.486Z,102918.50
2023-02-12T23:03:46.017Z,102925.44
2023-02-12T23:06:15.987Z,102923.78
2023-02-12T23:08:43.924Z,102927.59
2023-02-12T23:11:12.310Z,102928.66
2023-02-12T23:13:39.812Z,102930.50
2023-02-12T23:16:07.233Z,102923.63
2023-02-12T23:18:34.699Z,102926.97
2023-02-12T23:21:02.474Z,102924.88
2023-02-12T23:23:29.789Z,102922.69
2023-02-12T23:25:57.040Z,102920.03
2023-02-12T23:28:24.377Z,102918.66
2023-02-12T23:30:52.262Z,102928.44
2023-02-12T23:33:19.885Z,102930.53
2023-02-12T23:35:47.897Z,102927.72
2023-02-12T23:38:15.583Z,102930.22
2023-02-12T23:40:43.057Z,102925.44
2023-02-12T23:43:10.734Z,102930.31
2023-02-12T23:45:38.277Z,102923.66
2023-02-12T23:48:05.720Z,102922.81
2023-02-12T23:50:33.126Z,102917.44
2023-02-12T23:53:00.365Z,102924.94
2023-02-12T23:55:27.749Z,102925.25
2023-02-12T23:57:55.399Z,102928.34
